sensor_id;sensor_type;location;lat;lon;timestamp;pressure;altitude;pressure_sealevel;temperature;humidity
65557;BME280;52200;53.490;14.376;2023-01-28T00:01:12;102659.09;;;2.44;64.97
65557;BME280;52200;53.490;14.376;2023-01-28T00:03:38;102674.72;;;2.36;64.40
65557;BME280;52200;53.490;14.376;2023-01-28T00:06:09;102675.34;;;1.88;64.33
65557;BME280;52200;53.490;14.376;2023-01-28T00:08:35;102682.19;;;1.92;64.36
65557;BME280;52200;53.490;14.376;2023-01-28T00:11:02;102669.72;;;2.15;64.71
65557;BME280;52200;53.490;14.376;2023-01-28T00:13:30;102671.06;;;2.28;64.63
65557;BME280;52200;53.490;14.376;2023-01-28T00:15:57;102675.22;;;2.28;64.22
65557;BME280;52200;53.490;14.376;2023-01-28T00:18:24;102685.63;;;2.37;64.77
65557;BME280;52200;53.490;14.376;2023-01-28T00:21:02;102675.44;;;2.34;64.63
65557;BME280;52200;53.490;14.376;2023-01-28T00:23:33;102673.06;;;2.37;64.86
65557;BME280;52200;53.490;14.376;2023-01-28T00:26:05;102678.34;;;2.43;65.68
65557;BME280;52200;53.490;14.376;2023-01-28T00:28:31;102663.03;;;2.37;65.96
65557;BME280;52200;53.490;14.376;2023-01-28T00:30:56;102677.47;;;2.21;66.00
65557;BME280;52200;53.490;14.376;2023-01-28T00:33:22;102666.34;;;2.36;65.19
65557;BME280;52200;53.490;14.376;2023-01-28T00:35:56;102672.75;;;2.50;64.78
65557;BME280;52200;53.490;14.376;2023-01-28T00:38:22;102664.91;;;2.42;65.13
65557;BME280;52200;53.490;14.376;2023-01-28T00:40:47;102670.06;;;2.46;66.12
65557;BME280;52200;53.490;14.376;2023-01-28T00:43:13;102665.66;;;2.40;65.91
65557;BME280;52200;53.490;14.376;2023-01-28T00:45:38;102659.06;;;2.42;65.79
65557;BME280;52200;53.490;14.376;2023-01-28T00:48:04;102669.31;;;2.48;65.16
65557;BME280;52200;53.490;14.376;2023-01-28T00:50:30;102661.38;;;2.37;65.14
65557;BME280;52200;53.490;14.376;2023-01-28T00:52:55;102664.09;;;2.21;65.83
65557;BME280;52200;53.490;14.376;2023-01-28T00:55:20;102647.56;;;2.26;66.14
65557;BME280;52200;53.490;14.376;2023-01-28T00:57:46;102655.47;;;2.35;65.91
65557;BME280;52200;53.490;14.376;2023-01-28T01:00:11;102659.06;;;2.42;66.04
65557;BME280;52200;53.490;14.376;2023-01-28T01:02:37;102668.31;;;2.22;66.94
65557;BME280;52200;53.490;14.376;2023-01-28T01:05:02;102667.13;;;2.35;66.81
65557;BME280;52200;53.490;14.376;2023-01-28T01:07:29;102673.53;;;2.27;67.50
65557;BME280;52200;53.490;14.376;2023-01-28T01:10:13;102672.38;;;2.41;67.65
65557;BME280;52200;53.490;14.376;2023-01-28T01:12:38;102670.53;;;2.35;67.28
65557;BME280;52200;53.490;14.376;2023-01-28T01:15:05;102667.78;;;2.29;67.46
65557;BME280;52200;53.490;14.376;2023-01-28T01:17:39;102673.75;;;2.33;67.00
65557;BME280;52200;53.490;14.376;2023-01-28T01:20:06;102674.78;;;2.38;67.03
65557;BME280;52200;53.490;14.376;2023-01-28T01:22:35;102662.25;;;2.38;67.74
65557;BME280;52200;53.490;14.376;2023-01-28T01:25:02;102667.28;;;2.38;68.00
65557;BME280;52200;53.490;14.376;2023-01-28T01:27:29;102663.91;;;2.16;68.45
65557;BME280;52200;53.490;14.376;2023-01-28T01:29:55;102661.41;;;2.16;68.68
65557;BME280;52200;53.490;14.376;2023-01-28T01:32:21;102663.13;;;1.96;69.47
65557;BME280;52200;53.490;14.376;2023-01-28T01:34:47;102663.25;;;1.39;70.46
65557;BME280;52200;53.490;14.376;2023-01-28T01:37:13;102672.50;;;1.81;69.70
65557;BME280;52200;53.490;14.376;2023-01-28T01:39:38;102664.59;;;1.91;69.87
65557;BME280;52200;53.490;14.376;2023-01-28T01:42:04;102657.63;;;2.05;69.68
65557;BME280;52200;53.490;14.376;2023-01-28T01:47:20;102668.69;;;2.10;69.10
65557;BME280;52200;53.490;14.376;2023-01-28T01:49:47;102667.63;;;2.05;69.55
65557;BME280;52200;53.490;14.376;2023-01-28T01:52:18;102666.56;;;2.19;69.97
65557;BME280;52200;53.490;14.376;2023-01-28T01:54:49;102665.50;;;2.14;70.20
65557;BME280;52200;53.490;14.376;2023-01-28T01:57:22;102669.22;;;2.03;69.81
65557;BME280;52200;53.490;14.376;2023-01-28T01:59:48;102664.69;;;2.15;69.55
65557;BME280;52200;53.490;14.376;2023-01-28T02:02:14;102663.25;;;2.20;68.96
65557;BME280;52200;53.490;14.376;2023-01-28T02:04:42;102662.13;;;2.14;67.76
65557;BME280;52200;53.490;14.376;2023-01-28T02:07:12;102667.94;;;2.13;68.49
65557;BME280;52200;53.490;14.376;2023-01-28T02:09:38;102668.13;;;2.17;68.42
65557;BME280;52200;53.490;14.376;2023-01-28T02:12:09;102663.84;;;2.15;68.68
65557;BME280;52200;53.490;14.376;2023-01-28T02:14:41;102664.69;;;1.94;69.75
65557;BME280;52200;53.490;14.376;2023-01-28T02:17:09;102667.19;;;1.73;70.21
65557;BME280;52200;53.490;14.376;2023-01-28T02:19:50;102669.22;;;1.82;70.28
65557;BME280;52200;53.490;14.376;2023-01-28T02:22:34;102658.22;;;1.99;69.61
65557;BME280;52200;53.490;14.376;2023-01-28T02:30:32;102656.28;;;1.92;69.14
65557;BME280;52200;53.490;14.376;2023-01-28T02:33:04;102665.81;;;2.01;69.80
65557;BME280;52200;53.490;14.376;2023-01-28T02:35:48;102656.19;;;1.90;69.64
65557;BME280;52200;53.490;14.376;2023-01-28T02:38:32;102659.19;;;1.82;69.63
65557;BME280;52200;53.490;14.376;2023-01-28T02:41:04;102663.09;;;1.75;68.53
65557;BME280;52200;53.490;14.376;2023-01-28T02:43:35;102661.91;;;1.67;69.04
65557;BME280;52200;53.490;14.376;2023-01-28T02:46:11;102650.34;;;1.90;68.60
65557;BME280;52200;53.490;14.376;2023-01-28T02:48:57;102650.84;;;2.02;69.17
65557;BME280;52200;53.490;14.376;2023-01-28T02:57:11;102644.78;;;1.97;69.53
65557;BME280;52200;53.490;14.376;2023-01-28T02:59:53;102655.78;;;1.80;70.37
65557;BME280;52200;53.490;14.376;2023-01-28T03:02:35;102652.31;;;1.97;70.48
65557;BME280;52200;53.490;14.376;2023-01-28T03:05:19;102652.78;;;1.88;71.00
65557;BME280;52200;53.490;14.376;2023-01-28T03:07:48;102647.09;;;1.92;71.09
65557;BME280;52200;53.490;14.376;2023-01-28T03:10:18;102651.00;;;1.86;70.58
65557;BME280;52200;53.490;14.376;2023-01-28T03:12:48;102650.34;;;1.90;71.03
65557;BME280;52200;53.490;14.376;2023-01-28T03:15:40;102650.75;;;1.58;72.82
65557;BME280;52200;53.490;14.376;2023-01-28T03:18:32;102636.72;;;1.83;71.87
65557;BME280;52200;53.490;14.376;2023-01-28T03:21:24;102635.00;;;1.82;71.12
65557;BME280;52200;53.490;14.376;2023-01-28T03:24:16;102652.00;;;1.89;71.46
65557;BME280;52200;53.490;14.376;2023-01-28T03:29:53;102648.28;;;1.60;71.95
65557;BME280;52200;53.490;14.376;2023-01-28T03:32:39;102640.34;;;1.70;72.57
65557;BME280;52200;53.490;14.376;2023-01-28T03:35:28;102641.53;;;1.79;72.73
65557;BME280;52200;53.490;14.376;2023-01-28T03:38:15;102641.59;;;1.80;73.06
65557;BME280;52200;53.490;14.376;2023-01-28T03:40:55;102640.91;;;1.84;72.42
65557;BME280;52200;53.490;14.376;2023-01-28T03:43:21;102630.22;;;1.88;72.65
65557;BME280;52200;53.490;14.376;2023-01-28T03:45:47;102628.38;;;1.84;71.88
65557;BME280;52200;53.490;14.376;2023-01-28T03:48:17;102635.66;;;1.78;72.10
65557;BME280;52200;53.490;14.376;2023-01-28T03:50:43;102639.38;;;1.88;71.89
65557;BME280;52200;53.490;14.376;2023-01-28T03:53:08;102630.16;;;1.87;72.20
65557;BME280;52200;53.490;14.376;2023-01-28T03:55:37;102634.56;;;1.71;72.70
65557;BME280;52200;53.490;14.376;2023-01-28T03:58:03;102641.72;;;1.83;72.66
65557;BME280;52200;53.490;14.376;2023-01-28T04:00:30;102631.81;;;1.86;72.16
65557;BME280;52200;53.490;14.376;2023-01-28T04:02:57;102634.75;;;1.76;73.28
65557;BME280;52200;53.490;14.376;2023-01-28T04:05:22;102650.13;;;1.85;72.64
65557;BME280;52200;53.490;14.376;2023-01-28T04:07:49;102644.41;;;1.88;72.14
65557;BME280;52200;53.490;14.376;2023-01-28T04:10:16;102651.25;;;1.92;72.92
65557;BME280;52200;53.490;14.376;2023-01-28T04:12:41;102648.19;;;1.99;72.69
65557;BME280;52200;53.490;14.376;2023-01-28T04:15:08;102637.31;;;1.99;72.18
65557;BME280;52200;53.490;14.376;2023-01-28T04:17:45;102648.19;;;1.99;72.77
65557;BME280;52200;53.490;14.376;2023-01-28T04:20:11;102649.34;;;1.86;72.51
65557;BME280;52200;53.490;14.376;2023-01-28T04:22:37;102641.97;;;1.89;73.03
65557;BME280;52200;53.490;14.376;2023-01-28T04:25:03;102643.81;;;1.93;72.74
65557;BME280;52200;53.490;14.376;2023-01-28T04:27:28;102649.94;;;1.81;73.07
65557;BME280;52200;53.490;14.376;2023-01-28T04:29:54;102646.81;;;1.65;72.85
65557;BME280;52200;53.490;14.376;2023-01-28T04:32:19;102645.84;;;1.61;73.15
65557;BME280;52200;53.490;14.376;2023-01-28T04:34:45;102655.78;;;1.80;73.26
65557;BME280;52200;53.490;14.376;2023-01-28T04:37:10;102647.31;;;1.56;73.12
65557;BME280;52200;53.490;14.376;2023-01-28T04:39:35;102660.53;;;1.73;73.74
65557;BME280;52200;53.490;14.376;2023-01-28T04:42:01;102662.44;;;1.59;74.20
65557;BME280;52200;53.490;14.376;2023-01-28T04:44:26;102657.28;;;1.76;73.45
65557;BME280;52200;53.490;14.376;2023-01-28T04:46:51;102656.34;;;1.53;74.63
65557;BME280;52200;53.490;14.376;2023-01-28T04:49:17;102656.63;;;1.80;73.60
65557;BME280;52200;53.490;14.376;2023-01-28T04:51:42;102653.06;;;1.75;74.28
65557;BME280;52200;53.490;14.376;2023-01-28T04:54:07;102656.91;;;1.47;73.86
65557;BME280;52200;53.490;14.376;2023-01-28T04:56:33;102659.94;;;1.59;74.38
65557;BME280;52200;53.490;14.376;2023-01-28T04:58:58;102646.09;;;1.68;73.31
65557;BME280;52200;53.490;14.376;2023-01-28T05:01:24;102653.56;;;1.66;73.39
65557;BME280;52200;53.490;14.376;2023-01-28T05:03:49;102637.66;;;1.66;73.30
65557;BME280;52200;53.490;14.376;2023-01-28T05:06:15;102649.38;;;1.67;72.48
65557;BME280;52200;53.490;14.376;2023-01-28T05:08:40;102645.09;;;1.64;71.75
65557;BME280;52200;53.490;14.376;2023-01-28T05:11:06;102631.50;;;1.38;72.17
65557;BME280;52200;53.490;14.376;2023-01-28T05:13:31;102643.06;;;1.75;71.30
65557;BME280;52200;53.490;14.376;2023-01-28T05:15:57;102652.25;;;1.96;71.55
65557;BME280;52200;53.490;14.376;2023-01-28T05:18:22;102644.97;;;2.02;71.21
65557;BME280;52200;53.490;14.376;2023-01-28T05:20:47;102642.56;;;2.05;70.41
65557;BME280;52200;53.490;14.376;2023-01-28T05:23:13;102649.13;;;2.01;71.23
65557;BME280;52200;53.490;14.376;2023-01-28T05:25:38;102653.63;;;2.10;70.05
65557;BME280;52200;53.490;14.376;2023-01-28T05:28:04;102650.09;;;2.05;70.59
65557;BME280;52200;53.490;14.376;2023-01-28T05:30:29;102642.09;;;1.92;70.71
65557;BME280;52200;53.490;14.376;2023-01-28T05:32:55;102645.75;;;2.01;70.79
65557;BME280;52200;53.490;14.376;2023-01-28T05:35:21;102637.91;;;1.93;70.67
65557;BME280;52200;53.490;14.376;2023-01-28T05:37:47;102636.91;;;1.68;71.09
65557;BME280;52200;53.490;14.376;2023-01-28T05:40:12;102641.88;;;1.47;72.23
65557;BME280;52200;53.490;14.376;2023-01-28T05:42:37;102638.63;;;1.69;71.63
65557;BME280;52200;53.490;14.376;2023-01-28T05:45:03;102632.63;;;1.66;70.76
65557;BME280;52200;53.490;14.376;2023-01-28T05:47:29;102622.75;;;1.69;71.52
65557;BME280;52200;53.490;14.376;2023-01-28T05:49:54;102633.03;;;1.75;71.15
65557;BME280;52200;53.490;14.376;2023-01-28T05:52:19;102636.22;;;1.71;71.54
65557;BME280;52200;53.490;14.376;2023-01-28T05:54:45;102637.41;;;1.59;72.36
65557;BME280;52200;53.490;14.376;2023-01-28T05:57:10;102638.81;;;1.74;72.27
65557;BME280;52200;53.490;14.376;2023-01-28T05:59:35;102647.09;;;1.92;72.35
65557;BME280;52200;53.490;14.376;2023-01-28T06:02:01;102628.72;;;1.92;71.46
65557;BME280;52200;53.490;14.376;2023-01-28T06:04:26;102643.91;;;1.97;71.96
65557;BME280;52200;53.490;14.376;2023-01-28T06:06:52;102644.72;;;1.96;72.46
65557;BME280;52200;53.490;14.376;2023-01-28T06:09:17;102634.03;;;2.00;72.16
65557;BME280;52200;53.490;14.376;2023-01-28T06:11:43;102640.75;;;2.01;72.83
65557;BME280;52200;53.490;14.376;2023-01-28T06:14:09;102654.91;;;2.00;73.37
65557;BME280;52200;53.490;14.376;2023-01-28T06:16:35;102634.75;;;1.97;72.99
65557;BME280;52200;53.490;14.376;2023-01-28T06:19:04;102640.84;;;1.83;73.64
65557;BME280;52200;53.490;14.376;2023-01-28T06:21:29;102627.22;;;1.76;73.85
65557;BME280;52200;53.490;14.376;2023-01-28T06:23:54;102646.00;;;1.86;73.41
65557;BME280;52200;53.490;14.376;2023-01-28T06:26:20;102644.34;;;1.86;73.84
65557;BME280;52200;53.490;14.376;2023-01-28T06:28:45;102649.94;;;1.81;73.95
65557;BME280;52200;53.490;14.376;2023-01-28T06:31:11;102645.75;;;1.80;74.85
65557;BME280;52200;53.490;14.376;2023-01-28T06:33:36;102647.34;;;1.99;73.52
65557;BME280;52200;53.490;14.376;2023-01-28T06:36:03;102641.66;;;2.03;73.17
65557;BME280;52200;53.490;14.376;2023-01-28T06:38:28;102651.75;;;2.04;73.17
65557;BME280;52200;53.490;14.376;2023-01-28T06:40:53;102646.13;;;1.89;73.83
65557;BME280;52200;53.490;14.376;2023-01-28T06:43:21;102650.28;;;1.88;74.22
65557;BME280;52200;53.490;14.376;2023-01-28T06:45:55;102641.28;;;1.93;74.38
65557;BME280;52200;53.490;14.376;2023-01-28T06:48:21;102641.84;;;2.07;74.35
65557;BME280;52200;53.490;14.376;2023-01-28T06:50:47;102653.53;;;2.07;73.69
65557;BME280;52200;53.490;14.376;2023-01-28T06:53:13;102655.34;;;2.11;73.73
65557;BME280;52200;53.490;14.376;2023-01-28T06:55:38;102654.56;;;2.12;73.98
65557;BME280;52200;53.490;14.376;2023-01-28T06:58:04;102658.41;;;2.04;74.54
65557;BME280;52200;53.490;14.376;2023-01-28T07:00:29;102644.28;;;2.06;74.63
65557;BME280;52200;53.490;14.376;2023-01-28T07:02:55;102639.28;;;2.06;74.20
65557;BME280;52200;53.490;14.376;2023-01-28T07:05:23;102645.03;;;2.03;75.07
65557;BME280;52200;53.490;14.376;2023-01-28T07:07:49;102656.38;;;1.95;75.32
65557;BME280;52200;53.490;14.376;2023-01-28T07:10:14;102642.56;;;1.84;75.65
65557;BME280;52200;53.490;14.376;2023-01-28T07:12:40;102640.84;;;1.83;75.68
65557;BME280;52200;53.490;14.376;2023-01-28T07:15:06;102661.94;;;1.47;76.51
65557;BME280;52200;53.490;14.376;2023-01-28T07:17:32;102654.13;;;1.80;76.65
65557;BME280;52200;53.490;14.376;2023-01-28T07:19:57;102645.88;;;1.83;76.61
65557;BME280;52200;53.490;14.376;2023-01-28T07:22:22;102645.81;;;2.02;76.05
65557;BME280;52200;53.490;14.376;2023-01-28T07:24:48;102655.84;;;2.23;75.54
65557;BME280;52200;53.490;14.376;2023-01-28T07:27:14;102656.56;;;2.00;76.20
65557;BME280;52200;53.490;14.376;2023-01-28T07:29:39;102648.69;;;1.90;76.17
65557;BME280;52200;53.490;14.376;2023-01-28T07:32:04;102671.56;;;1.98;75.82
65557;BME280;52200;53.490;14.376;2023-01-28T07:34:32;102670.84;;;2.01;76.30
65557;BME280;52200;53.490;14.376;2023-01-28T07:36:57;102675.22;;;2.06;76.19
65557;BME280;52200;53.490;14.376;2023-01-28T07:39:23;102674.38;;;2.06;76.09
65557;BME280;52200;53.490;14.376;2023-01-28T07:41:48;102658.09;;;2.17;75.32
65557;BME280;52200;53.490;14.376;2023-01-28T07:44:13;102670.78;;;2.20;74.95
65557;BME280;52200;53.490;14.376;2023-01-28T07:46:39;102673.88;;;1.93;75.74
65557;BME280;52200;53.490;14.376;2023-01-28T07:49:04;102677.66;;;2.26;75.24
65557;BME280;52200;53.490;14.376;2023-01-28T07:51:30;102689.28;;;2.45;74.50
65557;BME280;52200;53.490;14.376;2023-01-28T07:53:56;102672.06;;;2.11;74.72
65557;BME280;52200;53.490;14.376;2023-01-28T07:56:21;102694.59;;;1.89;76.04
65557;BME280;52200;53.490;14.376;2023-01-28T07:58:50;102683.06;;;2.14;76.37
65557;BME280;52200;53.490;14.376;2023-01-28T08:01:15;102700.28;;;2.28;76.05
65557;BME280;52200;53.490;14.376;2023-01-28T08:03:42;102698.31;;;1.99;76.38
65557;BME280;52200;53.490;14.376;2023-01-28T08:06:08;102697.00;;;2.29;76.29
65557;BME280;52200;53.490;14.376;2023-01-28T08:08:33;102690.31;;;2.50;75.36
65557;BME280;52200;53.490;14.376;2023-01-28T08:11:05;102686.56;;;2.62;74.85
65557;BME280;52200;53.490;14.376;2023-01-28T08:13:33;102696.56;;;2.39;75.19
65557;BME280;52200;53.490;14.376;2023-01-28T08:15:58;102691.66;;;2.42;75.57
65557;BME280;52200;53.490;14.376;2023-01-28T08:18:23;102690.00;;;2.64;74.69
65557;BME280;52200;53.490;14.376;2023-01-28T08:20:54;102696.72;;;2.65;75.12
65557;BME280;52200;53.490;14.376;2023-01-28T08:23:20;102692.28;;;2.80;74.30
65557;BME280;52200;53.490;14.376;2023-01-28T08:25:46;102701.25;;;2.73;74.91
65557;BME280;52200;53.490;14.376;2023-01-28T08:28:12;102690.63;;;2.58;74.79
65557;BME280;52200;53.490;14.376;2023-01-28T08:30:39;102703.25;;;2.82;74.35
65557;BME280;52200;53.490;14.376;2023-01-28T08:33:10;102698.44;;;2.66;75.02
65557;BME280;52200;53.490;14.376;2023-01-28T08:35:36;102703.94;;;2.57;75.78
65557;BME280;52200;53.490;14.376;2023-01-28T08:38:02;102709.94;;;2.83;75.72
65557;BME280;52200;53.490;14.376;2023-01-28T08:40:29;102716.13;;;2.92;74.40
65557;BME280;52200;53.490;14.376;2023-01-28T08:42:55;102711.94;;;2.69;74.44
65557;BME280;52200;53.490;14.376;2023-01-28T08:45:22;102702.44;;;2.83;74.54
65557;BME280;52200;53.490;14.376;2023-01-28T08:48:00;102713.72;;;2.72;74.02
65557;BME280;52200;53.490;14.376;2023-01-28T08:50:29;102708.91;;;2.55;75.24
65557;BME280;52200;53.490;14.376;2023-01-28T08:53:02;102708.22;;;3.03;74.17
65557;BME280;52200;53.490;14.376;2023-01-28T08:55:28;102712.53;;;3.08;74.06
65557;BME280;52200;53.490;14.376;2023-01-28T08:57:54;102725.94;;;2.85;73.91
65557;BME280;52200;53.490;14.376;2023-01-28T09:00:21;102723.16;;;3.00;73.43
65557;BME280;52200;53.490;14.376;2023-01-28T09:02:50;102735.53;;;3.18;73.62
65557;BME280;52200;53.490;14.376;2023-01-28T09:05:16;102736.78;;;3.30;73.26
65557;BME280;52200;53.490;14.376;2023-01-28T09:07:42;102737.22;;;3.42;72.73
65557;BME280;52200;53.490;14.376;2023-01-28T09:10:08;102739.50;;;3.36;73.20
65557;BME280;52200;53.490;14.376;2023-01-28T09:12:35;102736.50;;;3.46;72.52
65557;BME280;52200;53.490;14.376;2023-01-28T09:15:00;102739.81;;;3.45;72.60
65557;BME280;52200;53.490;14.376;2023-01-28T09:17:26;102733.41;;;3.53;73.22
65557;BME280;52200;53.490;14.376;2023-01-28T09:19:51;102750.22;;;3.54;72.20
65557;BME280;52200;53.490;14.376;2023-01-28T09:22:17;102750.47;;;3.15;72.74
65557;BME280;52200;53.490;14.376;2023-01-28T09:24:43;102743.16;;;2.76;73.37
65557;BME280;52200;53.490;14.376;2023-01-28T09:27:08;102743.03;;;2.96;72.85
65557;BME280;52200;53.490;14.376;2023-01-28T09:29:34;102743.97;;;3.20;72.52
65557;BME280;52200;53.490;14.376;2023-01-28T09:32:00;102742.56;;;3.51;71.96
65557;BME280;52200;53.490;14.376;2023-01-28T09:34:25;102745.41;;;3.61;71.54
65557;BME280;52200;53.490;14.376;2023-01-28T09:36:50;102741.56;;;3.23;71.49
65557;BME280;52200;53.490;14.376;2023-01-28T09:39:16;102748.09;;;3.18;71.30
65557;BME280;52200;53.490;14.376;2023-01-28T09:41:55;102743.97;;;2.75;71.96
65557;BME280;52200;53.490;14.376;2023-01-28T09:44:50;102745.75;;;3.00;71.98
65557;BME280;52200;53.490;14.376;2023-01-28T09:50:02;102744.84;;;3.21;71.09
65557;BME280;52200;53.490;14.376;2023-01-28T09:52:33;102745.47;;;2.93;72.17
65557;BME280;52200;53.490;14.376;2023-01-28T09:55:04;102748.72;;;3.35;70.97
65557;BME280;52200;53.490;14.376;2023-01-28T09:57:40;102748.19;;;2.99;70.50
65557;BME280;52200;53.490;14.376;2023-01-28T10:00:20;102734.22;;;3.05;70.95
65557;BME280;52200;53.490;14.376;2023-01-28T10:08:18;102745.25;;;3.56;68.94
65557;BME280;52200;53.490;14.376;2023-01-28T10:13:45;102741.53;;;3.95;68.67
65557;BME280;52200;53.490;14.376;2023-01-28T10:21:40;102748.72;;;3.35;66.88
65557;BME280;52200;53.490;14.376;2023-01-28T10:24:18;102751.03;;;3.08;66.68
65557;BME280;52200;53.490;14.376;2023-01-28T10:26:48;102748.00;;;3.39;65.50
65557;BME280;52200;53.490;14.376;2023-01-28T10:29:16;102746.38;;;2.95;66.44
65557;BME280;52200;53.490;14.376;2023-01-28T10:31:53;102736.06;;;3.10;66.41
65557;BME280;52200;53.490;14.376;2023-01-28T10:34:21;102743.19;;;2.99;66.23
65557;BME280;52200;53.490;14.376;2023-01-28T10:36:48;102730.72;;;3.25;66.06
65557;BME280;52200;53.490;14.376;2023-01-28T10:39:16;102730.03;;;3.29;66.75
65557;BME280;52200;53.490;14.376;2023-01-28T10:41:42;102729.53;;;3.15;66.61
65557;BME280;52200;53.490;14.376;2023-01-28T10:44:36;102723.94;;;3.22;65.96
65557;BME280;52200;53.490;14.376;2023-01-28T10:47:19;102720.97;;;2.64;66.17
65557;BME280;52200;53.490;14.376;2023-01-28T10:49:55;102719.06;;;3.27;65.57
65557;BME280;52200;53.490;14.376;2023-01-28T10:52:24;102721.84;;;3.10;65.93
65557;BME280;52200;53.490;14.376;2023-01-28T10:55:04;102717.78;;;3.14;65.46
65557;BME280;52200;53.490;14.376;2023-01-28T10:57:32;102716.56;;;3.27;64.78
65557;BME280;52200;53.490;14.376;2023-01-28T11:00:11;102724.63;;;2.95;64.82
65557;BME280;52200;53.490;14.376;2023-01-28T11:02:37;102716.59;;;3.04;64.22
65557;BME280;52200;53.490;14.376;2023-01-28T11:05:14;102704.38;;;2.90;64.21
65557;BME280;52200;53.490;14.376;2023-01-28T11:07:45;102712.69;;;2.89;65.28
65557;BME280;52200;53.490;14.376;2023-01-28T11:10:31;102714.53;;;3.16;64.77
65557;BME280;52200;53.490;14.376;2023-01-28T11:12:59;102708.47;;;3.11;64.94
65557;BME280;52200;53.490;14.376;2023-01-28T11:15:25;102710.06;;;3.09;64.71
65557;BME280;52200;53.490;14.376;2023-01-28T11:18:05;102704.16;;;3.07;63.77
65557;BME280;52200;53.490;14.376;2023-01-28T11:20:49;102709.38;;;2.90;63.68
65557;BME280;52200;53.490;14.376;2023-01-28T11:23:23;102702.13;;;2.53;63.82
65557;BME280;52200;53.490;14.376;2023-01-28T11:25:59;102694.69;;;3.00;64.35
65557;BME280;52200;53.490;14.376;2023-01-28T11:28:27;102700.53;;;3.00;63.64
65557;BME280;52200;53.490;14.376;2023-01-28T11:30:56;102699.91;;;2.61;63.83
65557;BME280;52200;53.490;14.376;2023-01-28T11:36:17;102695.34;;;2.96;63.59
65557;BME280;52200;53.490;14.376;2023-01-28T11:38:53;102685.88;;;3.11;62.99
65557;BME280;52200;53.490;14.376;2023-01-28T11:41:36;102690.63;;;3.03;62.59
65557;BME280;52200;53.490;14.376;2023-01-28T11:49:40;102703.84;;;2.54;62.14
65557;BME280;52200;53.490;14.376;2023-01-28T11:55:17;102676.59;;;2.63;63.12
65557;BME280;52200;53.490;14.376;2023-01-28T12:25:37;102656.13;;;3.22;60.36
65557;BME280;52200;53.490;14.376;2023-01-28T12:36:48;102617.13;;;3.83;59.92
65557;BME280;52200;53.490;14.376;2023-01-28T12:42:41;102610.63;;;3.90;60.43
65557;BME280;52200;53.490;14.376;2023-01-28T12:47:56;102619.25;;;3.21;59.83
65557;BME280;52200;53.490;14.376;2023-01-28T12:50:37;102606.34;;;3.60;59.83
65557;BME280;52200;53.490;14.376;2023-01-28T12:53:20;102602.78;;;4.08;59.93
65557;BME280;52200;53.490;14.376;2023-01-28T12:55:52;102607.25;;;4.17;58.77
65557;BME280;52200;53.490;14.376;2023-01-28T12:58:26;102614.19;;;3.97;57.78
65557;BME280;52200;53.490;14.376;2023-01-28T13:01:00;102609.16;;;3.97;57.48
65557;BME280;52200;53.490;14.376;2023-01-28T13:03:40;102605.06;;;3.73;57.47
65557;BME280;52200;53.490;14.376;2023-01-28T13:06:29;102593.69;;;3.84;57.42
65557;BME280;52200;53.490;14.376;2023-01-28T13:08:59;102592.50;;;3.73;57.06
65557;BME280;52200;53.490;14.376;2023-01-28T13:11:32;102584.25;;;3.51;57.06
65557;BME280;52200;53.490;14.376;2023-01-28T13:13:59;102580.00;;;3.76;57.75
65557;BME280;52200;53.490;14.376;2023-01-28T13:16:25;102582.13;;;3.90;55.84
65557;BME280;52200;53.490;14.376;2023-01-28T13:18:51;102569.22;;;3.79;55.95
65557;BME280;52200;53.490;14.376;2023-01-28T13:21:29;102562.53;;;3.79;56.12
65557;BME280;52200;53.490;14.376;2023-01-28T13:26:43;102568.84;;;3.41;57.11
65557;BME280;52200;53.490;14.376;2023-01-28T13:29:26;102579.59;;;3.62;56.55
65557;BME280;52200;53.490;14.376;2023-01-28T13:31:58;102564.38;;;3.32;58.62
65557;BME280;52200;53.490;14.376;2023-01-28T13:34:33;102556.50;;;3.22;58.50
65557;BME280;52200;53.490;14.376;2023-01-28T13:37:14;102549.97;;;3.28;58.77
65557;BME280;52200;53.490;14.376;2023-01-28T13:39:47;102552.66;;;2.60;59.61
65557;BME280;52200;53.490;14.376;2023-01-28T13:42:23;102549.47;;;2.88;59.25
65557;BME280;52200;53.490;14.376;2023-01-28T13:44:49;102558.81;;;2.68;60.81
65557;BME280;52200;53.490;14.376;2023-01-28T13:47:35;102572.97;;;3.14;59.53
65557;BME280;52200;53.490;14.376;2023-01-28T13:50:05;102575.41;;;2.64;59.73
65557;BME280;52200;53.490;14.376;2023-01-28T13:52:36;102583.34;;;2.52;59.54
65557;BME280;52200;53.490;14.376;2023-01-28T13:55:37;102596.13;;;2.36;59.94
65557;BME280;52200;53.490;14.376;2023-01-28T14:06:20;102609.94;;;2.70;60.18
65557;BME280;52200;53.490;14.376;2023-01-28T14:20:03;102592.34;;;2.47;60.18
65557;BME280;52200;53.490;14.376;2023-01-28T14:22:29;102585.56;;;2.22;61.04
65557;BME280;52200;53.490;14.376;2023-01-28T14:24:57;102588.34;;;2.52;60.81
65557;BME280;52200;53.490;14.376;2023-01-28T14:27:36;102588.59;;;2.58;61.10
65557;BME280;52200;53.490;14.376;2023-01-28T14:32:45;102584.03;;;2.48;61.61
65557;BME280;52200;53.490;14.376;2023-01-28T14:35:18;102574.81;;;2.24;60.84
65557;BME280;52200;53.490;14.376;2023-01-28T14:37:44;102570.00;;;2.08;61.34
65557;BME280;52200;53.490;14.376;2023-01-28T14:40:15;102581.88;;;1.70;62.00
65557;BME280;52200;53.490;14.376;2023-01-28T14:42:42;102577.16;;;1.77;62.42
65557;BME280;52200;53.490;14.376;2023-01-28T14:45:34;102579.97;;;1.85;63.38
65557;BME280;52200;53.490;14.376;2023-01-28T14:48:20;102572.16;;;1.77;63.10
65557;BME280;52200;53.490;14.376;2023-01-28T14:58:50;102576.41;;;1.38;64.41
65557;BME280;52200;53.490;14.376;2023-01-28T15:01:23;102587.00;;;1.32;64.57
65557;BME280;52200;53.490;14.376;2023-01-28T15:03:49;102590.53;;;1.57;64.22